createdAt,value
2023-02-08T00:02:00.998Z,46.80
2023-02-08T00:04:27.501Z,46.90
2023-02-08T00:06:54.035Z,47.22
2023-02-08T00:09:20.312Z,46.84
2023-02-08T00:11:46.590Z,46.62
2023-02-08T00:14:12.915Z,46.43
2023-02-08T00:16:39.657Z,47.03
2023-02-08T00:19:05.948Z,46.46
2023-02-08T00:21:35.165Z,47.03
2023-02-08T00:24:01.684Z,46.58
2023-02-08T00:26:27.927Z,47.15
2023-02-08T00:28:54.202Z,46.53
2023-02-08T00:31:20.593Z,46.98
2023-02-08T00:33:47.145Z,47.30
2023-02-08T00:36:13.493Z,46.50
2023-02-08T00:38:39.990Z,46.71
2023-02-08T00:41:06.413Z,46.70
2023-02-08T00:43:32.720Z,46.88
2023-02-08T00:45:59.601Z,47.14
2023-02-08T00:48:26.783Z,47.33
2023-02-08T00:51:00.562Z,47.13
2023-02-08T00:53:27.068Z,46.97
2023-02-08T00:55:53.698Z,47.17
2023-02-08T00:58:20.264Z,47.18
2023-02-08T01:00:46.661Z,46.59
2023-02-08T01:03:12.972Z,46.54
2023-02-08T01:05:39.255Z,46.91
2023-02-08T01:08:05.521Z,46.69
2023-02-08T01:10:34.193Z,46.63
2023-02-08T01:13:01.719Z,46.90
2023-02-08T01:15:28.032Z,46.55
2023-02-08T01:17:55.246Z,47.09
2023-02-08T01:20:22.290Z,46.70
2023-02-08T01:22:48.660Z,46.91
2023-02-08T01:25:15.295Z,46.91
2023-02-08T01:27:41.793Z,47.12
2023-02-08T01:30:08.616Z,47.06
2023-02-08T01:32:34.912Z,47.21
2023-02-08T01:35:02.320Z,46.84
2023-02-08T01:37:28.605Z,47.00
2023-02-08T01:39:54.820Z,46.97
2023-02-08T01:42:21.112Z,46.83
2023-02-08T01:45:06.224Z,46.69
2023-02-08T01:47:32.543Z,46.83
2023-02-08T01:50:01.226Z,46.88
2023-02-08T01:52:28.688Z,46.65
2023-02-08T01:54:57.645Z,46.96
2023-02-08T01:57:24.995Z,46.82
2023-02-08T01:59:54.838Z,47.26
2023-02-08T02:02:22.036Z,46.98
2023-02-08T02:04:49.558Z,47.33
2023-02-08T02:07:17.347Z,46.96
2023-02-08T02:09:46.615Z,46.96
2023-02-08T02:12:13.693Z,46.98
2023-02-08T02:14:40.380Z,47.53
2023-02-08T02:17:07.088Z,46.98
2023-02-08T02:19:51.988Z,47.08
2023-02-08T02:22:37.900Z,47.40
2023-02-08T02:25:20.924Z,47.09
2023-02-08T02:28:02.735Z,47.28
2023-02-08T02:30:38.326Z,46.93
2023-02-08T02:33:19.259Z,47.04
2023-02-08T02:35:49.993Z,47.01
2023-02-08T02:38:22.687Z,47.15
2023-02-08T02:41:01.176Z,47.26
2023-02-08T02:43:41.318Z,47.06
2023-02-08T02:46:23.129Z,46.99
2023-02-08T02:49:08.229Z,47.30
2023-02-08T02:51:37.582Z,47.10
2023-02-08T02:54:12.970Z,47.30
2023-02-08T02:56:42.447Z,47.38
2023-02-08T02:59:10.614Z,47.16
2023-02-08T03:01:37.102Z,46.84
2023-02-08T03:04:13.753Z,46.94
2023-02-08T03:06:55.222Z,47.41
2023-02-08T03:09:30.904Z,47.45
2023-02-08T03:12:04.338Z,47.43
2023-02-08T03:14:40.880Z,47.19
2023-02-08T03:17:10.203Z,46.93
2023-02-08T03:19:42.546Z,46.98
2023-02-08T03:22:14.105Z,47.43
2023-02-08T03:24:46.146Z,47.25
2023-02-08T03:27:17.882Z,47.33
2023-02-08T03:29:49.848Z,47.31
2023-02-08T03:32:26.645Z,46.76
2023-02-08T03:34:59.344Z,47.25
2023-02-08T03:37:36.360Z,47.35
2023-02-08T03:40:06.245Z,47.31
2023-02-08T03:42:33.828Z,47.22
2023-02-08T03:45:08.218Z,47.33
2023-02-08T03:47:36.950Z,47.13
2023-02-08T03:50:04.856Z,47.37
2023-02-08T03:52:32.190Z,46.90
2023-02-08T03:55:07.141Z,47.09
2023-02-08T03:57:37.020Z,47.35
2023-02-08T04:00:08.462Z,47.18
2023-02-08T04:02:37.801Z,47.41
2023-02-08T04:05:04.941Z,46.89
2023-02-08T04:07:31.414Z,47.38
2023-02-08T04:09:59.048Z,47.03
2023-02-08T04:12:25.278Z,47.14
2023-02-08T04:14:51.547Z,46.97
2023-02-08T04:17:17.996Z,47.33
2023-02-08T04:19:44.319Z,47.04
2023-02-08T04:22:10.827Z,47.38
2023-02-08T04:24:37.050Z,47.01
2023-02-08T04:27:05.766Z,47.07
2023-02-08T04:29:33.375Z,47.32
2023-02-08T04:32:00.421Z,46.92
2023-02-08T04:34:27.260Z,47.15
2023-02-08T04:36:53.758Z,46.84
2023-02-08T04:39:20.039Z,47.13
2023-02-08T04:41:46.344Z,47.16
2023-02-08T04:44:12.619Z,46.91
2023-02-08T04:46:39.168Z,47.24
2023-02-08T04:49:05.753Z,47.21
2023-02-08T04:51:33.491Z,47.29
2023-02-08T04:54:01.236Z,47.22
2023-02-08T04:56:27.738Z,47.11
2023-02-08T04:58:54.385Z,46.97
2023-02-08T05:01:20.896Z,47.25
2023-02-08T05:03:47.391Z,47.11
2023-02-08T05:06:13.673Z,47.28
2023-02-08T05:08:40.596Z,46.97
2023-02-08T05:11:06.838Z,47.24
2023-02-08T05:13:34.133Z,47.00
2023-02-08T05:16:00.460Z,47.08
2023-02-08T05:18:26.841Z,47.20
2023-02-08T05:21:00.054Z,47.16
2023-02-08T05:23:29.884Z,47.29
2023-02-08T05:25:56.355Z,46.90
2023-02-08T05:28:22.630Z,47.01
2023-02-08T05:30:49.187Z,47.06
2023-02-08T05:33:16.877Z,47.15
2023-02-08T05:35:44.410Z,47.15
2023-02-08T05:38:11.054Z,46.95
2023-02-08T05:40:37.344Z,46.86
2023-02-08T05:43:03.632Z,47.03
2023-02-08T05:45:29.893Z,47.24
2023-02-08T05:47:58.649Z,47.11
2023-02-08T05:50:24.914Z,47.22
2023-02-08T05:52:51.396Z,46.77
2023-02-08T05:55:17.650Z,46.96
2023-02-08T05:57:43.934Z,47.12
2023-02-08T06:00:10.781Z,46.50
2023-02-08T06:02:37.563Z,47.04
2023-02-08T06:05:03.950Z,46.75
2023-02-08T06:07:30.197Z,47.17
2023-02-08T06:09:56.694Z,47.25
2023-02-08T06:12:22.932Z,46.72
2023-02-08T06:14:49.525Z,47.25
2023-02-08T06:17:15.975Z,47.03
2023-02-08T06:19:42.253Z,46.84
2023-02-08T06:22:08.740Z,47.23
2023-02-08T06:24:34.977Z,46.85
2023-02-08T06:27:01.439Z,46.82
2023-02-08T06:29:27.688Z,46.80
2023-02-08T06:31:54.077Z,46.92
2023-02-08T06:34:20.711Z,46.94
2023-02-08T06:36:46.936Z,47.17
2023-02-08T06:39:13.429Z,46.88
2023-02-08T06:41:39.718Z,46.78
2023-02-08T06:44:06.045Z,47.24
2023-02-08T06:46:32.382Z,46.62
2023-02-08T06:49:00.231Z,46.73
2023-02-08T06:51:26.966Z,46.79
2023-02-08T06:53:53.447Z,46.96
2023-02-08T06:56:19.677Z,46.90
2023-02-08T06:58:46.324Z,46.71
2023-02-08T07:01:13.756Z,46.96
2023-02-08T07:03:40.731Z,47.17
2023-02-08T07:06:12.177Z,46.98
2023-02-08T07:08:38.784Z,47.07
2023-02-08T07:11:12.573Z,46.79
2023-02-08T07:13:38.915Z,47.04
2023-02-08T07:16:06.356Z,47.06
2023-02-08T07:18:32.904Z,47.32
2023-02-08T07:20:59.454Z,46.84
2023-02-08T07:23:28.777Z,46.94
2023-02-08T07:26:02.833Z,47.05
2023-02-08T07:28:29.100Z,47.08
2023-02-08T07:30:55.676Z,46.86
2023-02-08T07:33:22.592Z,47.13
2023-02-08T07:35:50.209Z,46.84
2023-02-08T07:38:16.654Z,46.86
2023-02-08T07:40:43.909Z,47.36
2023-02-08T07:43:10.269Z,47.20
2023-02-08T07:45:39.834Z,46.96
2023-02-08T07:48:06.600Z,47.02
2023-02-08T07:50:33.194Z,47.38
2023-02-08T07:52:59.760Z,47.19
2023-02-08T07:55:26.110Z,47.50
2023-02-08T07:57:55.295Z,47.64
2023-02-08T08:00:21.739Z,47.63
2023-02-08T08:02:50.516Z,47.27
2023-02-08T08:05:17.033Z,47.07
2023-02-08T08:07:43.309Z,47.66
2023-02-08T08:10:09.648Z,47.53
2023-02-08T08:12:36.124Z,47.30
2023-02-08T08:15:02.395Z,47.18
2023-02-08T08:17:29.994Z,47.26
2023-02-08T08:19:56.560Z,47.70
2023-02-08T08:22:22.912Z,47.48
2023-02-08T08:24:49.391Z,47.81
2023-02-08T08:27:15.938Z,47.75
2023-02-08T08:29:43.847Z,47.37
2023-02-08T08:32:11.835Z,47.60
2023-02-08T08:34:38.490Z,47.85
2023-02-08T08:37:04.998Z,47.61
2023-02-08T08:39:32.082Z,47.32
2023-02-08T08:41:59.754Z,47.64
2023-02-08T08:44:26.455Z,47.91
2023-02-08T08:46:56.856Z,47.74
2023-02-08T08:49:23.773Z,47.15
2023-02-08T08:51:50.832Z,47.10
2023-02-08T08:54:17.402Z,47.20
2023-02-08T08:56:44.045Z,47.58
2023-02-08T08:59:10.687Z,47.43
2023-02-08T09:01:38.497Z,47.51
2023-02-08T09:04:04.994Z,47.24
2023-02-08T09:06:31.535Z,47.32
2023-02-08T09:08:57.838Z,47.09
2023-02-08T09:11:24.106Z,47.19
2023-02-08T09:13:56.305Z,47.55
2023-02-08T09:16:23.554Z,46.99
2023-02-08T09:18:50.275Z,46.84
2023-02-08T09:21:20.995Z,46.96
2023-02-08T09:23:50.232Z,46.77
2023-02-08T09:26:17.724Z,46.81
2023-02-08T09:28:43.992Z,46.81
2023-02-08T09:31:11.707Z,46.75
2023-02-08T09:33:38.499Z,46.76
2023-02-08T09:36:05.638Z,46.81
2023-02-08T09:38:34.615Z,46.69
2023-02-08T09:41:03.899Z,46.52
2023-02-08T09:43:41.761Z,46.70
2023-02-08T09:46:11.525Z,46.97
2023-02-08T09:48:39.237Z,47.16
2023-02-08T09:51:20.628Z,47.11
2023-02-08T09:53:50.257Z,47.16
2023-02-08T09:56:19.522Z,47.53
2023-02-08T09:58:53.076Z,47.10
2023-02-08T10:01:27.975Z,47.01
2023-02-08T10:04:08.838Z,46.92
2023-02-08T10:06:35.756Z,47.47
2023-02-08T10:09:04.324Z,46.89
2023-02-08T10:11:37.091Z,46.66
2023-02-08T10:14:22.577Z,46.49
2023-02-08T10:17:11.212Z,46.09
2023-02-08T10:19:43.234Z,46.63
2023-02-08T10:22:17.012Z,46.01
2023-02-08T10:24:43.667Z,46.03
2023-02-08T10:27:17.487Z,45.95
2023-02-08T10:29:52.057Z,45.52
2023-02-08T10:32:27.747Z,45.94
2023-02-08T10:35:02.124Z,46.01
2023-02-08T10:37:34.530Z,46.08
2023-02-08T10:40:08.678Z,45.98
2023-02-08T10:42:37.345Z,45.59
2023-02-08T10:45:25.065Z,45.09
2023-02-08T10:47:56.594Z,45.08
2023-02-08T10:50:30.278Z,44.83
2023-02-08T10:52:57.675Z,44.84
2023-02-08T10:55:25.044Z,45.21
2023-02-08T10:57:55.817Z,44.87
2023-02-08T11:00:32.147Z,44.81
2023-02-08T11:03:01.325Z,44.26
2023-02-08T11:05:35.319Z,44.46
2023-02-08T11:08:09.330Z,44.52
2023-02-08T11:10:38.031Z,44.45
2023-02-08T11:13:09.929Z,45.55
2023-02-08T11:15:44.324Z,45.58
2023-02-08T11:18:18.157Z,44.62
2023-02-08T11:20:48.596Z,43.78
2023-02-08T11:23:20.447Z,43.70
2023-02-08T11:25:47.088Z,43.95
2023-02-08T11:28:24.274Z,44.09
2023-02-08T11:31:01.533Z,43.90
2023-02-08T11:33:29.114Z,43.58
2023-02-08T11:36:12.910Z,42.93
2023-02-08T11:38:42.023Z,43.15
2023-02-08T11:41:17.354Z,42.59
2023-02-08T11:43:44.918Z,42.54
2023-02-08T11:48:53.299Z,42.97
2023-02-08T11:51:27.859Z,43.96
2023-02-08T11:53:54.910Z,45.28
2023-02-08T11:56:23.108Z,45.62
2023-02-08T11:58:59.229Z,44.63
2023-02-08T12:01:27.113Z,45.46
2023-02-08T12:03:56.702Z,45.40
2023-02-08T12:06:42.922Z,45.45
2023-02-08T12:09:09.352Z,44.75
2023-02-08T12:11:41.852Z,43.84
2023-02-08T12:14:26.990Z,42.97
2023-02-08T12:17:02.715Z,45.39
2023-02-08T12:19:35.111Z,45.28
2023-02-08T12:22:12.041Z,44.63
2023-02-08T12:24:50.628Z,44.55
2023-02-08T12:27:27.711Z,45.51
2023-02-08T12:30:16.500Z,44.77
2023-02-08T12:33:01.178Z,44.43
2023-02-08T12:35:51.052Z,42.20
2023-02-08T12:39:18.371Z,41.83
2023-02-08T12:41:48.859Z,41.85
2023-02-08T12:44:17.923Z,43.97
2023-02-08T12:46:45.165Z,41.89
2023-02-08T12:49:30.777Z,42.70
2023-02-08T12:52:15.808Z,40.92
2023-02-08T12:54:49.087Z,41.58
2023-02-08T12:57:16.871Z,40.43
2023-02-08T12:59:48.685Z,40.45
2023-02-08T13:02:18.299Z,41.02
2023-02-08T13:04:47.261Z,40.15
2023-02-08T13:07:19.566Z,39.72
2023-02-08T13:09:56.173Z,42.64
2023-02-08T13:12:27.957Z,43.35
2023-02-08T13:15:34.503Z,43.76
2023-02-08T13:18:22.380Z,43.62
2023-02-08T13:20:53.996Z,42.28
2023-02-08T13:23:20.236Z,42.96
2023-02-08T13:25:50.569Z,42.71
2023-02-08T13:28:22.122Z,42.01
2023-02-08T13:30:54.600Z,40.54
2023-02-08T13:33:28.915Z,40.42
2023-02-08T13:35:55.222Z,40.12
2023-02-08T13:38:35.620Z,38.20
2023-02-08T13:41:16.188Z,38.54
2023-02-08T13:43:46.905Z,41.23
2023-02-08T13:46:13.863Z,41.81
2023-02-08T13:48:46.146Z,42.38
2023-02-08T13:51:30.775Z,39.93
2023-02-08T13:53:57.138Z,41.31
2023-02-08T13:56:43.464Z,40.52
2023-02-08T13:59:34.263Z,42.95
2023-02-08T14:02:15.144Z,42.40
2023-02-08T14:04:41.770Z,41.37
2023-02-08T14:07:10.974Z,41.87
2023-02-08T14:09:37.261Z,41.06
2023-02-08T14:12:07.085Z,40.15
2023-02-08T14:14:43.281Z,39.83
2023-02-08T14:17:26.062Z,39.35
2023-02-08T14:19:57.049Z,36.13
2023-02-08T14:22:23.668Z,37.31
2023-02-08T14:25:00.912Z,37.94
2023-02-08T14:27:30.065Z,39.04
2023-02-08T14:30:05.534Z,41.00
2023-02-08T14:32:34.053Z,40.27
2023-02-08T14:35:02.784Z,38.81
2023-02-08T14:37:30.902Z,34.39
2023-02-08T14:40:16.355Z,35.51
2023-02-08T14:43:02.684Z,37.18
2023-02-08T14:45:34.531Z,36.56
2023-02-08T14:48:00.776Z,36.58
2023-02-08T14:50:32.465Z,35.97
2023-02-08T14:52:58.992Z,36.85
2023-02-08T14:55:27.534Z,37.74
2023-02-08T14:57:58.038Z,37.52
2023-02-08T15:00:37.458Z,36.99
2023-02-08T15:03:06.580Z,38.14
2023-02-08T15:05:38.434Z,36.73
2023-02-08T15:08:05.487Z,36.66
2023-02-08T15:10:35.257Z,37.57
2023-02-08T15:13:06.786Z,37.57
2023-02-08T15:15:35.320Z,37.96
2023-02-08T15:18:02.291Z,38.09
2023-02-08T15:20:31.038Z,37.45
2023-02-08T15:23:04.128Z,37.87
2023-02-08T15:25:35.228Z,38.66
2023-02-08T15:28:17.079Z,38.41
2023-02-08T15:30:45.620Z,38.41
2023-02-08T15:33:17.789Z,38.20
2023-02-08T15:35:46.337Z,37.70
2023-02-08T15:38:20.268Z,37.79
2023-02-08T15:41:09.761Z,37.87
2023-02-08T15:43:37.104Z,37.63
2023-02-08T15:46:07.709Z,37.90
2023-02-08T15:48:37.088Z,37.98
2023-02-08T15:51:05.252Z,38.32
2023-02-08T15:53:39.921Z,39.30
2023-02-08T15:56:07.459Z,39.09
2023-02-08T15:58:38.900Z,38.46
2023-02-08T16:01:06.617Z,38.74
2023-02-08T16:03:35.194Z,38.91
2023-02-08T16:06:02.903Z,39.10
2023-02-08T16:08:33.651Z,38.95
2023-02-08T16:11:23.284Z,39.01
2023-02-08T16:13:54.895Z,38.63
2023-02-08T16:16:43.940Z,39.02
2023-02-08T16:19:20.761Z,38.80
2023-02-08T16:21:47.242Z,38.36
2023-02-08T16:24:14.158Z,38.92
2023-02-08T16:26:49.956Z,39.05
2023-02-08T16:29:25.693Z,38.92
2023-02-08T16:32:04.040Z,38.95
2023-02-08T16:34:32.729Z,38.97
2023-02-08T16:37:00.097Z,38.61
2023-02-08T16:39:37.735Z,39.05
2023-02-08T16:42:16.070Z,39.42
2023-02-08T16:44:57.092Z,39.22
2023-02-08T16:47:25.262Z,39.04
2023-02-08T16:49:51.778Z,39.64
2023-02-08T16:52:18.257Z,39.78
2023-02-08T16:54:44.524Z,39.28
2023-02-08T16:57:11.015Z,39.24
2023-02-08T16:59:37.309Z,39.70
2023-02-08T17:02:03.687Z,39.17
2023-02-08T17:04:32.005Z,39.51
2023-02-08T17:06:59.494Z,40.02
2023-02-08T17:09:25.969Z,40.12
2023-02-08T17:11:52.246Z,40.11
2023-02-08T17:14:18.519Z,39.40
2023-02-08T17:16:44.763Z,39.41
2023-02-08T17:19:16.086Z,39.66
2023-02-08T17:21:42.329Z,40.17
2023-02-08T17:24:08.608Z,39.84
2023-02-08T17:26:37.985Z,40.50
2023-02-08T17:29:04.493Z,40.33
2023-02-08T17:31:31.096Z,40.02
2023-02-08T17:34:04.382Z,40.71
2023-02-08T17:36:32.017Z,40.67
2023-02-08T17:38:58.668Z,40.26
2023-02-08T17:41:25.155Z,40.50
2023-02-08T17:43:53.124Z,40.25
2023-02-08T17:46:20.732Z,41.18
2023-02-08T17:48:48.365Z,40.27
2023-02-08T17:51:16.432Z,40.62
2023-02-08T17:53:43.914Z,40.68
2023-02-08T17:56:20.790Z,40.56
2023-02-08T17:58:50.216Z,40.89
2023-02-08T18:01:21.163Z,41.20
2023-02-08T18:03:48.408Z,41.02
2023-02-08T18:06:15.047Z,41.03
2023-02-08T18:08:41.587Z,40.80
2023-02-08T18:11:13.174Z,41.19
2023-02-08T18:13:39.507Z,40.93
2023-02-08T18:16:06.499Z,41.17
2023-02-08T18:18:32.984Z,41.12
2023-02-08T18:20:59.238Z,41.47
2023-02-08T18:23:26.353Z,41.19
2023-02-08T18:25:52.691Z,41.26
2023-02-08T18:28:19.006Z,41.23
2023-02-08T18:30:45.375Z,41.46
2023-02-08T18:33:13.543Z,41.32
2023-02-08T18:35:39.802Z,41.47
2023-02-08T18:38:06.751Z,41.51
2023-02-08T18:40:33.276Z,41.44
2023-02-08T18:42:59.761Z,41.58
2023-02-08T18:45:26.078Z,41.44
2023-02-08T18:47:52.323Z,41.58
2023-02-08T18:50:18.572Z,41.76
2023-02-08T18:52:44.819Z,41.84
2023-02-08T18:55:12.433Z,41.86
2023-02-08T18:57:39.891Z,41.81
2023-02-08T19:00:07.423Z,41.91
2023-02-08T19:02:33.885Z,41.93
2023-02-08T19:05:00.371Z,41.92
2023-02-08T19:07:26.644Z,41.89
2023-02-08T19:09:53.972Z,41.83
2023-02-08T19:12:21.043Z,41.82
2023-02-08T19:14:50.985Z,41.82
2023-02-08T19:17:17.626Z,41.63
2023-02-08T19:19:44.141Z,41.83
2023-02-08T19:22:10.864Z,42.01
2023-02-08T19:24:37.383Z,41.81
2023-02-08T19:27:04.022Z,42.10
2023-02-08T19:29:30.576Z,41.81
2023-02-08T19:31:58.382Z,42.03
2023-02-08T19:34:25.638Z,41.84
2023-02-08T19:36:53.412Z,42.15
2023-02-08T19:39:24.713Z,42.10
2023-02-08T19:41:52.989Z,42.27
2023-02-08T19:44:19.915Z,41.95
2023-02-08T19:46:47.451Z,42.23
2023-02-08T19:49:14.064Z,42.18
2023-02-08T19:51:41.156Z,42.32
2023-02-08T19:54:10.101Z,42.24
2023-02-08T19:56:36.867Z,42.25
2023-02-08T19:59:04.087Z,42.33
2023-02-08T20:01:31.248Z,42.33
2023-02-08T20:03:57.541Z,42.19
2023-02-08T20:06:25.707Z,42.30
2023-02-08T20:08:52.058Z,42.37
2023-02-08T20:11:20.304Z,42.31
2023-02-08T20:13:46.916Z,42.41
2023-02-08T20:16:13.436Z,42.36
2023-02-08T20:18:40.098Z,42.22
2023-02-08T20:21:06.552Z,42.18
2023-02-08T20:23:32.853Z,42.42
2023-02-08T20:26:18.582Z,42.22
2023-02-08T20:28:46.844Z,41.97
2023-02-08T20:31:21.554Z,42.43
2023-02-08T20:33:48.620Z,42.10
2023-02-08T20:36:22.935Z,42.34
2023-02-08T20:38:49.840Z,42.28
2023-02-08T20:41:16.794Z,42.17
2023-02-08T20:43:44.145Z,42.55
2023-02-08T20:46:14.088Z,42.48
2023-02-08T20:48:40.477Z,42.46
2023-02-08T20:51:17.423Z,42.40
2023-02-08T20:53:45.147Z,42.12
2023-02-08T20:56:12.899Z,42.68
2023-02-08T20:58:39.426Z,42.25
2023-02-08T21:01:09.897Z,42.43
2023-02-08T21:03:36.430Z,42.64
2023-02-08T21:06:10.844Z,42.58
2023-02-08T21:08:37.141Z,42.43
2023-02-08T21:11:03.537Z,42.59
2023-02-08T21:13:30.025Z,42.54
2023-02-08T21:15:56.298Z,42.12
2023-02-08T21:18:22.790Z,41.95
2023-02-08T21:20:49.584Z,42.53
2023-02-08T21:23:15.899Z,42.21
2023-02-08T21:25:44.499Z,42.16
2023-02-08T21:28:11.491Z,42.53
2023-02-08T21:30:38.449Z,42.26
2023-02-08T21:33:05.144Z,42.13
2023-02-08T21:35:31.528Z,42.13
2023-02-08T21:37:58.023Z,42.57
2023-02-08T21:40:24.291Z,42.63
2023-02-08T21:42:50.786Z,42.48
2023-02-08T21:45:17.138Z,42.45
2023-02-08T21:47:43.636Z,42.56
2023-02-08T21:50:29.071Z,42.32
2023-02-08T21:53:13.840Z,42.43
2023-02-08T21:55:44.605Z,42.91
2023-02-08T21:58:11.077Z,42.18
2023-02-08T22:00:37.291Z,42.18
2023-02-08T22:03:03.755Z,42.22
2023-02-08T22:05:48.738Z,42.31
2023-02-08T22:08:14.984Z,42.13
2023-02-08T22:10:50.202Z,42.35
2023-02-08T22:13:23.056Z,42.08
2023-02-08T22:15:49.296Z,42.20
2023-02-08T22:18:15.580Z,42.38
2023-02-08T22:20:43.500Z,42.11
2023-02-08T22:23:10.021Z,42.17
2023-02-08T22:25:36.524Z,42.33
2023-02-08T22:28:02.839Z,42.61
2023-02-08T22:30:29.097Z,42.59
2023-02-08T22:32:55.377Z,42.62
2023-02-08T22:35:21.704Z,42.25
2023-02-08T22:37:48.089Z,42.36
2023-02-08T22:40:14.611Z,42.49
2023-02-08T22:42:43.041Z,42.57
2023-02-08T22:45:12.762Z,42.52
2023-02-08T22:47:39.099Z,42.68
2023-02-08T22:50:06.192Z,42.34
2023-02-08T22:52:34.423Z,42.20
2023-02-08T22:55:03.775Z,42.29
2023-02-08T22:57:31.480Z,43.08
2023-02-08T22:59:57.862Z,42.64
2023-02-08T23:02:24.338Z,42.89
2023-02-08T23:04:51.025Z,42.32
2023-02-08T23:07:17.515Z,42.51
2023-02-08T23:09:44.225Z,43.03
2023-02-08T23:12:10.529Z,42.82
2023-02-08T23:14:37.128Z,42.86
2023-02-08T23:17:03.908Z,42.72
2023-02-08T23:19:30.453Z,42.32
2023-02-08T23:21:59.817Z,42.64
2023-02-08T23:24:26.314Z,42.70
2023-02-08T23:26:52.788Z,42.66
2023-02-08T23:29:20.509Z,42.96
2023-02-08T23:31:46.861Z,42.96
2023-02-08T23:34:13.509Z,42.77
2023-02-08T23:36:39.995Z,43.06
2023-02-08T23:39:06.412Z,42.97
2023-02-08T23:41:34.121Z,43.19
2023-02-08T23:44:00.405Z,42.65
2023-02-08T23:46:27.957Z,43.10
2023-02-08T23:48:54.473Z,43.05
2023-02-08T23:51:21.735Z,42.44
2023-02-08T23:53:48.254Z,43.00
2023-02-08T23:56:16.384Z,43.10
2023-02-08T23:58:43.841Z,43.09
